createdAt,value
2022-11-22T00:01:08.459Z,51.80
2022-11-22T00:03:42.383Z,51.80
2022-11-22T00:06:17.829Z,51.70
2022-11-22T00:08:51.803Z,51.70
2022-11-22T00:11:26.053Z,51.60
2022-11-22T00:14:00.227Z,51.70
2022-11-22T00:16:34.721Z,51.70
2022-11-22T00:19:08.698Z,51.70
2022-11-22T00:21:44.173Z,51.60
2022-11-22T00:24:18.137Z,51.60
2022-11-22T00:26:52.065Z,51.50
2022-11-22T00:29:26.359Z,51.50
2022-11-22T00:32:00.403Z,51.50
2022-11-22T00:34:34.763Z,51.50
2022-11-22T00:37:10.119Z,51.50
2022-11-22T00:39:43.933Z,51.50
2022-11-22T00:42:17.462Z,51.90
2022-11-22T00:44:51.275Z,52.90
2022-11-22T00:47:24.838Z,53.30
2022-11-22T00:49:58.678Z,53.70
2022-11-22T00:52:33.594Z,53.30
2022-11-22T00:55:08.369Z,53.40
2022-11-22T00:57:42.191Z,53.20
2022-11-22T01:00:15.820Z,53.20
2022-11-22T01:02:49.647Z,53.10
2022-11-22T01:05:23.137Z,53.10
2022-11-22T01:07:58.342Z,53.10
2022-11-22T01:10:32.141Z,53.00
2022-11-22T01:13:06.071Z,53.00
2022-11-22T01:15:39.880Z,53.00
2022-11-22T01:18:13.363Z,52.90
2022-11-22T01:20:47.195Z,53.00
2022-11-22T01:23:22.250Z,52.90
2022-11-22T01:25:56.043Z,53.00
2022-11-22T01:28:29.541Z,53.00
2022-11-22T01:31:03.432Z,53.00
2022-11-22T01:33:37.633Z,53.00
2022-11-22T01:36:11.104Z,53.10
2022-11-22T01:38:46.322Z,53.20
2022-11-22T01:41:20.229Z,53.20
2022-11-22T01:43:54.039Z,53.30
2022-11-22T01:46:31.525Z,53.30
2022-11-22T01:49:08.039Z,53.30
2022-11-22T01:51:43.703Z,53.20
2022-11-22T01:54:23.827Z,53.20
2022-11-22T01:57:00.980Z,53.20
2022-11-22T01:59:36.967Z,53.20
2022-11-22T02:02:10.931Z,53.20
2022-11-22T02:04:45.768Z,53.20
2022-11-22T02:07:25.572Z,53.10
2022-11-22T02:10:00.830Z,53.20
2022-11-22T02:12:37.440Z,53.20
2022-11-22T02:15:13.081Z,53.20
2022-11-22T02:17:46.985Z,53.30
2022-11-22T02:20:20.910Z,53.20
2022-11-22T02:23:02.547Z,53.30
2022-11-22T02:25:46.028Z,53.30
2022-11-22T02:28:19.912Z,53.30
2022-11-22T02:30:53.769Z,53.40
2022-11-22T02:33:27.316Z,53.40
2022-11-22T02:36:01.734Z,53.40
2022-11-22T02:38:36.902Z,53.90
2022-11-22T02:41:13.624Z,53.30
2022-11-22T02:43:49.112Z,53.30
2022-11-22T02:46:26.083Z,53.40
2022-11-22T02:49:00.059Z,53.30
2022-11-22T02:51:33.716Z,53.40
2022-11-22T02:54:07.706Z,53.40
2022-11-22T02:56:43.251Z,53.30
2022-11-22T02:59:17.432Z,53.30
2022-11-22T03:01:51.406Z,53.30
2022-11-22T03:04:28.278Z,53.30
2022-11-22T03:07:02.515Z,53.40
2022-11-22T03:09:36.489Z,53.40
2022-11-22T03:12:11.451Z,53.40
2022-11-22T03:14:45.249Z,53.40
2022-11-22T03:17:19.126Z,53.40
2022-11-22T03:19:52.685Z,53.50
2022-11-22T03:22:26.524Z,53.60
2022-11-22T03:25:00.623Z,53.60
2022-11-22T03:27:36.001Z,53.60
2022-11-22T03:30:10.649Z,53.60
2022-11-22T03:32:44.596Z,53.60
2022-11-22T03:35:18.485Z,53.60
2022-11-22T03:37:52.480Z,53.70
2022-11-22T03:40:25.985Z,53.80
2022-11-22T03:43:02.349Z,53.80
2022-11-22T03:45:36.209Z,53.70
2022-11-22T03:48:10.047Z,53.70
2022-11-22T03:50:43.869Z,53.80
2022-11-22T03:53:17.419Z,53.70
2022-11-22T03:55:51.147Z,53.80
2022-11-22T03:58:26.042Z,53.80
2022-11-22T04:01:00.079Z,53.80
2022-11-22T04:03:34.073Z,53.80
2022-11-22T04:06:07.877Z,53.80
2022-11-22T04:08:42.032Z,53.90
2022-11-22T04:11:15.993Z,53.90
2022-11-22T04:14:08.215Z,53.90
2022-11-22T04:16:42.236Z,53.90
2022-11-22T04:19:16.008Z,53.90
2022-11-22T04:21:48.441Z,53.90
2022-11-22T04:24:39.580Z,53.90
2022-11-22T04:27:13.325Z,53.90
2022-11-22T04:29:48.556Z,53.90
2022-11-22T04:32:40.013Z,53.90
2022-11-22T04:35:15.306Z,53.90
2022-11-22T04:37:52.340Z,54.00
2022-11-22T04:40:26.329Z,54.00
2022-11-22T04:43:16.980Z,54.00
2022-11-22T04:45:52.384Z,54.10
2022-11-22T04:48:26.125Z,54.00
2022-11-22T04:51:17.138Z,54.00
2022-11-22T04:53:50.880Z,53.90
2022-11-22T04:56:25.130Z,54.10
2022-11-22T04:58:58.888Z,54.10
2022-11-22T05:01:34.057Z,54.00
2022-11-22T05:04:07.840Z,54.10
2022-11-22T05:06:41.333Z,54.10
2022-11-22T05:09:15.297Z,54.10
2022-11-22T05:11:49.052Z,54.10
2022-11-22T05:14:22.514Z,54.10
2022-11-22T05:16:57.725Z,54.10
2022-11-22T05:19:31.632Z,54.20
2022-11-22T05:22:05.638Z,54.20
2022-11-22T05:24:38.087Z,54.10
2022-11-22T05:27:11.849Z,54.10
2022-11-22T05:29:45.311Z,54.10
2022-11-22T05:32:20.500Z,54.20
2022-11-22T05:34:54.235Z,54.10
2022-11-22T05:37:28.083Z,54.10
2022-11-22T05:40:01.571Z,54.10
2022-11-22T05:42:35.645Z,54.20
2022-11-22T05:45:09.789Z,54.10
2022-11-22T05:47:45.024Z,54.20
2022-11-22T05:50:19.152Z,54.10
2022-11-22T05:53:03.219Z,54.10
2022-11-22T05:55:37.008Z,54.10
2022-11-22T05:58:10.469Z,54.00
2022-11-22T06:00:44.211Z,54.10
2022-11-22T06:03:19.085Z,54.10
2022-11-22T06:05:53.400Z,54.20
2022-11-22T06:08:27.217Z,54.00
2022-11-22T06:11:05.490Z,53.90
2022-11-22T06:13:40.606Z,53.90
2022-11-22T06:16:15.283Z,54.20
2022-11-22T06:18:50.869Z,54.00
2022-11-22T06:21:26.619Z,54.50
2022-11-22T06:24:00.484Z,54.60
2022-11-22T06:26:39.061Z,54.50
2022-11-22T06:29:13.530Z,54.50
2022-11-22T06:31:47.384Z,54.50
2022-11-22T06:34:22.307Z,54.30
2022-11-22T06:36:57.728Z,54.30
2022-11-22T06:39:31.833Z,54.10
2022-11-22T06:42:06.749Z,53.80
2022-11-22T06:44:40.577Z,53.50
2022-11-22T06:47:14.076Z,53.40
2022-11-22T06:49:49.294Z,53.20
2022-11-22T06:52:23.800Z,53.10
2022-11-22T06:54:57.749Z,52.90
2022-11-22T06:57:31.239Z,52.80
2022-11-22T07:00:06.130Z,52.60
2022-11-22T07:02:39.905Z,52.30
2022-11-22T07:05:25.693Z,52.10
2022-11-22T07:08:06.613Z,51.90
2022-11-22T07:10:41.866Z,51.70
2022-11-22T07:13:15.388Z,51.40
2022-11-22T07:15:56.450Z,51.10
2022-11-22T07:18:30.757Z,51.00
2022-11-22T07:21:12.499Z,50.80
2022-11-22T07:23:49.137Z,50.70
2022-11-22T07:26:25.190Z,50.60
2022-11-22T07:28:59.040Z,50.40
2022-11-22T07:31:32.707Z,50.30
2022-11-22T07:34:06.547Z,50.20
2022-11-22T07:36:41.878Z,50.10
2022-11-22T07:39:15.862Z,49.90
2022-11-22T07:41:49.808Z,49.90
2022-11-22T07:44:23.930Z,49.80
2022-11-22T07:46:57.717Z,49.90
2022-11-22T07:49:31.424Z,50.00
2022-11-22T07:52:07.132Z,50.30
2022-11-22T07:54:44.024Z,50.30
2022-11-22T07:57:17.503Z,50.20
2022-11-22T07:59:51.315Z,50.20
2022-11-22T08:02:24.939Z,50.20
2022-11-22T08:04:58.760Z,50.20
2022-11-22T08:07:33.771Z,50.10
2022-11-22T08:10:08.992Z,50.00
2022-11-22T08:12:43.179Z,49.90
2022-11-22T08:15:18.109Z,49.70
2022-11-22T08:17:52.027Z,49.60
2022-11-22T08:20:26.109Z,49.50
2022-11-22T08:23:01.348Z,49.30
2022-11-22T08:25:35.309Z,49.10
2022-11-22T08:28:09.289Z,48.80
2022-11-22T08:30:42.803Z,48.80
2022-11-22T08:33:16.964Z,48.90
2022-11-22T08:35:51.809Z,49.00
2022-11-22T08:38:27.419Z,49.10
2022-11-22T08:41:01.227Z,49.20
2022-11-22T08:43:34.748Z,49.40
2022-11-22T08:46:08.969Z,49.50
2022-11-22T08:48:42.755Z,49.40
2022-11-22T08:51:16.247Z,49.60
2022-11-22T08:53:51.417Z,49.90
2022-11-22T08:56:25.212Z,50.00
2022-11-22T08:58:58.749Z,50.30
2022-11-22T09:01:32.655Z,50.60
2022-11-22T09:04:06.744Z,50.70
2022-11-22T09:09:38.059Z,51.20
2022-11-22T09:12:12.207Z,51.30
2022-11-22T09:14:46.088Z,51.80
2022-11-22T09:17:19.678Z,52.00
2022-11-22T09:19:53.617Z,52.10
2022-11-22T09:22:28.717Z,51.90
2022-11-22T09:25:04.124Z,51.70
2022-11-22T09:27:37.984Z,51.20
2022-11-22T09:30:12.247Z,50.10
2022-11-22T09:32:46.353Z,49.20
2022-11-22T09:35:20.409Z,47.30
2022-11-22T09:37:54.292Z,46.00
2022-11-22T09:40:30.588Z,44.10
2022-11-22T09:43:16.761Z,42.10
2022-11-22T09:46:06.774Z,42.30
2022-11-22T09:49:09.475Z,42.30
2022-11-22T09:51:49.881Z,41.60
2022-11-22T09:54:28.448Z,40.80
2022-11-22T09:57:10.581Z,40.50
2022-11-22T09:59:48.324Z,40.50
2022-11-22T10:02:26.959Z,40.10
2022-11-22T10:05:03.730Z,40.00
2022-11-22T10:07:44.620Z,40.50
2022-11-22T10:10:22.993Z,40.40
2022-11-22T10:13:03.851Z,40.10
2022-11-22T10:15:46.292Z,39.90
2022-11-22T10:18:24.980Z,39.90
2022-11-22T10:20:58.807Z,39.60
2022-11-22T10:23:33.925Z,39.70
2022-11-22T10:26:20.647Z,41.20
2022-11-22T10:29:10.360Z,40.10
2022-11-22T10:31:55.075Z,40.30
2022-11-22T10:34:41.803Z,39.80
2022-11-22T10:37:22.702Z,40.10
2022-11-22T10:40:15.651Z,39.60
2022-11-22T10:43:19.597Z,40.40
2022-11-22T10:46:04.485Z,40.80
2022-11-22T10:48:46.178Z,39.70
2022-11-22T10:51:26.220Z,39.40
2022-11-22T10:54:11.571Z,39.20
2022-11-22T10:56:51.356Z,39.50
2022-11-22T10:59:38.554Z,39.60
2022-11-22T11:02:33.506Z,40.10
2022-11-22T11:05:13.413Z,38.10
2022-11-22T11:07:56.558Z,39.20
2022-11-22T11:10:38.110Z,39.30
2022-11-22T11:13:21.665Z,39.40
2022-11-22T11:15:59.459Z,39.80
2022-11-22T11:18:42.829Z,39.50
2022-11-22T11:21:17.063Z,38.30
2022-11-22T11:23:54.849Z,38.80
2022-11-22T11:26:32.277Z,39.30
2022-11-22T11:29:42.783Z,39.10
2022-11-22T11:32:18.107Z,38.50
2022-11-22T11:34:57.341Z,38.90
2022-11-22T11:40:30.531Z,38.60
2022-11-22T11:43:20.927Z,38.60
2022-11-22T11:45:55.146Z,38.60
2022-11-22T11:48:30.883Z,38.80
2022-11-22T11:51:14.275Z,39.00
2022-11-22T11:54:00.214Z,39.30
2022-11-22T11:56:41.374Z,39.50
2022-11-22T11:59:22.311Z,39.60
2022-11-22T12:02:00.404Z,39.70
2022-11-22T12:04:37.635Z,39.90
2022-11-22T12:07:21.421Z,40.00
2022-11-22T12:09:57.337Z,40.20
2022-11-22T12:12:43.974Z,40.10
2022-11-22T12:15:22.545Z,40.40
2022-11-22T12:18:01.685Z,40.60
2022-11-22T12:20:44.580Z,41.20
2022-11-22T12:23:26.347Z,41.80
2022-11-22T12:26:03.504Z,42.50
2022-11-22T12:28:39.709Z,42.50
2022-11-22T12:31:24.756Z,42.90
2022-11-22T12:34:02.321Z,43.30
2022-11-22T12:36:45.873Z,43.60
2022-11-22T12:39:26.345Z,43.70
2022-11-22T12:42:05.312Z,43.80
2022-11-22T12:44:43.878Z,44.20
2022-11-22T12:47:22.030Z,44.00
2022-11-22T12:50:01.495Z,43.80
2022-11-22T12:52:42.746Z,43.60
2022-11-22T12:55:22.667Z,43.40
2022-11-22T12:58:04.892Z,42.80
2022-11-22T13:00:45.872Z,42.60
2022-11-22T13:03:28.413Z,42.30
2022-11-22T13:06:07.541Z,42.10
2022-11-22T13:08:52.951Z,41.60
2022-11-22T13:11:34.006Z,41.60
2022-11-22T13:14:19.376Z,41.80
2022-11-22T13:16:57.299Z,41.60
2022-11-22T13:19:32.108Z,40.80
2022-11-22T13:22:16.720Z,40.90
2022-11-22T13:25:10.104Z,40.90
2022-11-22T13:27:48.720Z,40.90
2022-11-22T13:30:24.800Z,40.30
2022-11-22T13:33:01.261Z,40.30
2022-11-22T13:35:36.584Z,39.60
2022-11-22T13:38:16.289Z,39.40
2022-11-22T13:40:51.879Z,39.30
2022-11-22T13:43:55.286Z,39.10
2022-11-22T13:46:55.500Z,39.70
2022-11-22T13:49:48.279Z,40.40
2022-11-22T13:52:54.043Z,39.30
2022-11-22T13:55:36.035Z,39.20
2022-11-22T13:58:52.451Z,38.90
2022-11-22T14:01:58.361Z,39.30
2022-11-22T14:04:43.892Z,39.50
2022-11-22T14:07:38.537Z,39.00
2022-11-22T14:10:34.665Z,39.00
2022-11-22T14:13:31.741Z,39.30
2022-11-22T14:16:20.123Z,38.50
2022-11-22T14:19:00.308Z,37.20
2022-11-22T14:21:51.867Z,37.00
2022-11-22T14:24:37.724Z,38.30
2022-11-22T14:27:24.244Z,38.00
2022-11-22T14:30:18.392Z,38.60
2022-11-22T14:33:02.271Z,39.00
2022-11-22T14:35:37.523Z,38.30
2022-11-22T14:38:33.156Z,37.70
2022-11-22T14:41:44.692Z,38.40
2022-11-22T14:44:20.889Z,38.60
2022-11-22T14:47:00.388Z,37.70
2022-11-22T14:49:43.366Z,37.90
2022-11-22T14:52:22.664Z,37.70
2022-11-22T14:55:00.168Z,38.00
2022-11-22T14:57:38.092Z,38.10
2022-11-22T15:00:19.538Z,37.90
2022-11-22T15:03:17.706Z,38.10
2022-11-22T15:09:10.584Z,38.10
2022-11-22T15:09:40.617Z,38.30
2022-11-22T15:12:26.271Z,38.80
2022-11-22T15:57:54.391Z,45.00
2022-11-22T16:00:30.033Z,45.30
2022-11-22T16:03:06.869Z,45.50
2022-11-22T16:06:06.517Z,45.70
2022-11-22T16:08:36.880Z,46.10
2022-11-22T16:11:21.483Z,46.50
2022-11-22T16:13:55.782Z,47.20
2022-11-22T16:16:31.556Z,47.20
2022-11-22T16:19:22.578Z,47.10
2022-11-22T16:22:00.460Z,46.70
2022-11-22T16:24:35.711Z,46.10
2022-11-22T16:27:16.537Z,45.60
2022-11-22T16:29:53.464Z,45.00
2022-11-22T16:32:27.428Z,44.60
2022-11-22T16:35:27.638Z,44.30
2022-11-22T16:37:55.172Z,44.00
2022-11-22T16:40:30.133Z,43.80
2022-11-22T16:43:09.369Z,44.00
2022-11-22T16:45:43.978Z,44.00
2022-11-22T16:48:35.079Z,43.80
2022-11-22T16:51:14.460Z,43.50
2022-11-22T16:53:50.058Z,43.50
2022-11-22T16:56:27.071Z,43.60
2022-11-22T16:59:01.323Z,43.70
2022-11-22T17:01:35.993Z,43.70
2022-11-22T17:04:21.200Z,43.70
2022-11-22T17:06:55.431Z,43.90
2022-11-22T17:09:29.479Z,43.90
2022-11-22T17:12:05.419Z,44.20
2022-11-22T17:14:39.269Z,44.40
2022-11-22T17:17:13.234Z,44.50
2022-11-22T17:19:53.090Z,44.70
2022-11-22T17:22:30.982Z,44.90
2022-11-22T17:25:05.114Z,44.90
2022-11-22T17:27:41.261Z,45.10
2022-11-22T17:30:16.620Z,45.20
2022-11-22T17:32:50.716Z,45.30
2022-11-22T17:35:24.707Z,45.40
2022-11-22T17:37:59.304Z,46.10
2022-11-22T17:40:33.452Z,45.50
2022-11-22T17:43:10.299Z,45.70
2022-11-22T17:45:45.114Z,45.80
2022-11-22T17:48:19.567Z,45.80
2022-11-22T17:50:53.756Z,46.00
2022-11-22T17:53:27.997Z,46.00
2022-11-22T17:56:10.433Z,46.10
2022-11-22T17:58:46.239Z,46.10
2022-11-22T18:01:22.173Z,46.30
2022-11-22T18:03:57.521Z,46.20
2022-11-22T18:06:32.275Z,46.20
2022-11-22T18:09:06.319Z,46.30
2022-11-22T18:11:40.344Z,46.30
2022-11-22T18:14:15.842Z,46.40
2022-11-22T18:16:49.871Z,46.50
2022-11-22T18:19:24.137Z,46.60
2022-11-22T18:21:58.157Z,46.60
2022-11-22T18:24:32.852Z,46.70
2022-11-22T18:27:06.861Z,47.00
2022-11-22T18:29:43.181Z,47.30
2022-11-22T18:32:17.499Z,47.60
2022-11-22T18:34:51.738Z,47.70
2022-11-22T18:37:26.216Z,47.90
2022-11-22T18:40:00.238Z,48.00
2022-11-22T18:42:35.467Z,48.20
2022-11-22T18:45:12.597Z,48.40
2022-11-22T18:47:46.985Z,48.60
2022-11-22T18:50:21.052Z,48.70
2022-11-22T18:52:55.296Z,48.90
2022-11-22T18:55:29.783Z,49.00
2022-11-22T18:58:03.760Z,49.10
2022-11-22T19:00:39.367Z,49.00
2022-11-22T19:03:13.728Z,49.20
2022-11-22T19:05:47.741Z,49.10
2022-11-22T19:08:21.745Z,49.10
2022-11-22T19:10:59.243Z,49.30
2022-11-22T19:13:34.202Z,49.80
2022-11-22T19:16:11.878Z,49.80
2022-11-22T19:18:47.684Z,49.90
2022-11-22T19:21:23.198Z,49.90
2022-11-22T19:23:57.680Z,50.00
2022-11-22T19:26:31.632Z,50.00
2022-11-22T19:29:05.465Z,50.10
2022-11-22T19:31:40.858Z,50.30
2022-11-22T19:34:15.086Z,50.30
2022-11-22T19:36:49.405Z,50.30
2022-11-22T19:39:22.967Z,50.20
2022-11-22T19:41:56.852Z,50.70
2022-11-22T19:44:31.599Z,50.40
2022-11-22T19:47:07.040Z,50.30
2022-11-22T19:49:40.919Z,50.30
2022-11-22T19:52:14.836Z,50.60
2022-11-22T19:54:48.748Z,50.50
2022-11-22T19:57:23.798Z,50.40
2022-11-22T20:00:00.141Z,50.50
2022-11-22T20:02:35.799Z,50.30
2022-11-22T20:05:10.666Z,49.60
2022-11-22T20:07:45.145Z,49.10
2022-11-22T20:10:19.777Z,48.40
2022-11-22T20:12:54.221Z,48.30
2022-11-22T20:15:28.443Z,48.70
2022-11-22T20:18:04.208Z,48.90
2022-11-22T20:20:38.274Z,49.00
2022-11-22T20:23:12.298Z,49.10
2022-11-22T20:25:46.525Z,49.10
2022-11-22T20:28:21.640Z,49.20
2022-11-22T20:31:04.983Z,49.30
2022-11-22T20:33:42.843Z,49.50
2022-11-22T20:36:18.809Z,49.50
2022-11-22T20:38:53.865Z,49.80
2022-11-22T20:41:29.247Z,49.70
2022-11-22T20:44:03.178Z,49.70
2022-11-22T20:46:38.691Z,49.90
2022-11-22T20:49:14.286Z,49.90
2022-11-22T20:51:48.437Z,49.80
2022-11-22T20:54:22.743Z,49.90
2022-11-22T20:56:56.882Z,50.00
2022-11-22T20:59:31.044Z,50.00
2022-11-22T21:02:09.067Z,50.00
2022-11-22T21:04:44.770Z,50.10
2022-11-22T21:07:18.900Z,50.00
2022-11-22T21:09:53.176Z,50.00
2022-11-22T21:12:27.246Z,50.00
2022-11-22T21:15:01.226Z,50.10
2022-11-22T21:17:50.152Z,50.20
2022-11-22T21:20:31.338Z,50.20
2022-11-22T21:23:05.917Z,50.20
2022-11-22T21:25:39.954Z,50.30
2022-11-22T21:28:14.007Z,50.30
2022-11-22T21:30:48.118Z,50.40
2022-11-22T21:33:22.103Z,50.40
2022-11-22T21:35:57.406Z,50.40
2022-11-22T21:38:31.597Z,50.50
2022-11-22T21:41:32.182Z,50.70
2022-11-22T21:44:01.099Z,51.10
2022-11-22T21:46:35.136Z,51.20
2022-11-22T21:49:09.468Z,51.50
2022-11-22T21:51:44.903Z,51.70
2022-11-22T21:54:18.915Z,51.70
2022-11-22T21:56:52.964Z,51.70
2022-11-22T21:59:27.060Z,51.70
2022-11-22T22:02:01.068Z,51.70
2022-11-22T22:04:35.026Z,51.60
2022-11-22T22:07:29.628Z,51.60
2022-11-22T22:10:06.131Z,51.60
2022-11-22T22:12:41.122Z,51.60
2022-11-22T22:15:16.689Z,51.50
2022-11-22T22:17:54.162Z,51.40
2022-11-22T22:20:28.175Z,51.40
2022-11-22T22:23:03.852Z,51.30
2022-11-22T22:25:41.487Z,51.30
2022-11-22T22:28:15.494Z,51.30
2022-11-22T22:30:49.131Z,51.20
2022-11-22T22:33:23.062Z,51.20
2022-11-22T22:35:57.280Z,51.20
2022-11-22T22:38:33.708Z,51.20
2022-11-22T22:41:08.545Z,51.20
2022-11-22T22:43:44.381Z,51.00
2022-11-22T22:46:19.924Z,51.10
2022-11-22T22:48:56.332Z,51.10
2022-11-22T22:51:33.221Z,51.00
2022-11-22T22:54:10.893Z,50.90
2022-11-22T22:56:45.240Z,51.00
2022-11-22T22:59:19.277Z,50.90
2022-11-22T23:01:53.243Z,50.90
2022-11-22T23:04:27.232Z,50.90
2022-11-22T23:07:01.193Z,50.80
2022-11-22T23:09:36.606Z,50.70
2022-11-22T23:12:13.517Z,50.80
2022-11-22T23:14:48.021Z,50.70
2022-11-22T23:17:22.174Z,50.70
2022-11-22T23:19:56.202Z,50.90
2022-11-22T23:22:29.894Z,50.80
2022-11-22T23:25:05.827Z,50.80
2022-11-22T23:27:39.923Z,50.80
2022-11-22T23:30:14.079Z,50.70
2022-11-22T23:32:48.045Z,50.70
2022-11-22T23:35:21.976Z,50.70
2022-11-22T23:37:56.104Z,50.70
2022-11-22T23:40:32.317Z,50.70
2022-11-22T23:43:06.272Z,50.70
2022-11-22T23:45:46.106Z,50.70
2022-11-22T23:48:20.143Z,50.60
2022-11-22T23:50:54.117Z,50.50
2022-11-22T23:53:28.068Z,50.40
2022-11-22T23:56:08.434Z,50.40
2022-11-22T23:58:42.580Z,50.50
